createdAt,value
2023-04-11T00:02:00.947Z,2.45
2023-04-11T00:04:27.983Z,1.80
2023-04-11T00:06:54.739Z,1.77
2023-04-11T00:09:21.460Z,2.42
2023-04-11T00:11:48.248Z,2.10
2023-04-11T00:14:15.242Z,2.00
2023-04-11T00:16:42.612Z,2.17
2023-04-11T00:19:12.196Z,2.10
2023-04-11T00:21:40.235Z,2.10
2023-04-11T00:24:10.164Z,1.80
2023-04-11T00:26:36.902Z,2.10
2023-04-11T00:29:03.586Z,1.88
2023-04-11T00:31:30.447Z,1.38
2023-04-11T00:33:57.362Z,1.30
2023-04-11T00:36:24.211Z,1.40
2023-04-11T00:38:51.284Z,1.58
2023-04-11T00:41:19.048Z,1.10
2023-04-11T00:43:45.785Z,0.90
2023-04-11T00:46:13.459Z,1.10
2023-04-11T00:48:41.518Z,1.30
2023-04-11T00:51:08.295Z,1.30
2023-04-11T00:53:37.155Z,1.40
2023-04-11T00:56:04.250Z,1.27
2023-04-11T00:58:32.108Z,1.00
2023-04-11T01:00:58.770Z,1.17
2023-04-11T01:03:25.781Z,1.27
2023-04-11T01:05:53.846Z,0.88
2023-04-11T01:08:22.488Z,0.82
2023-04-11T01:10:49.640Z,1.10
2023-04-11T01:13:16.474Z,1.00
2023-04-11T01:15:43.512Z,1.05
2023-04-11T01:18:10.419Z,1.25
2023-04-11T01:20:38.485Z,1.20
2023-04-11T01:23:06.299Z,1.00
2023-04-11T01:25:33.038Z,0.85
2023-04-11T01:27:59.718Z,1.10
2023-04-11T01:30:26.501Z,1.15
2023-04-11T01:32:53.242Z,1.30
2023-04-11T01:35:20.215Z,1.10
2023-04-11T01:37:47.019Z,1.30
2023-04-11T01:40:17.073Z,1.08
2023-04-11T01:42:44.708Z,1.10
2023-04-11T01:45:13.056Z,1.02
2023-04-11T01:47:39.902Z,1.02
2023-04-11T01:50:07.594Z,1.13
2023-04-11T01:52:34.391Z,1.17
2023-04-11T01:55:01.101Z,1.23
2023-04-11T01:57:27.831Z,1.25
2023-04-11T01:59:54.494Z,1.48
2023-04-11T02:02:27.315Z,1.77
2023-04-11T02:04:54.047Z,1.35
2023-04-11T02:07:21.041Z,1.75
2023-04-11T02:09:47.767Z,1.52
2023-04-11T02:12:14.533Z,1.27
2023-04-11T02:14:43.050Z,1.05
2023-04-11T02:17:10.696Z,1.20
2023-04-11T02:19:45.217Z,1.00
2023-04-11T02:22:12.737Z,1.00
2023-04-11T02:24:39.621Z,1.27
2023-04-11T02:27:06.664Z,1.15
2023-04-11T02:29:33.959Z,1.02
2023-04-11T02:32:01.226Z,0.88
2023-04-11T02:34:28.434Z,0.70
2023-04-11T02:36:55.644Z,1.00
2023-04-11T02:39:25.453Z,1.00
2023-04-11T02:41:52.321Z,1.10
2023-04-11T02:44:19.940Z,1.25
2023-04-11T02:46:46.702Z,1.35
2023-04-11T02:49:13.542Z,1.10
2023-04-11T02:51:40.372Z,1.25
2023-04-11T02:54:07.626Z,1.30
2023-04-11T02:56:37.861Z,1.58
2023-04-11T02:59:06.704Z,1.70
2023-04-11T03:01:33.760Z,1.50
2023-04-11T03:04:00.868Z,1.38
2023-04-11T03:06:28.154Z,1.30
2023-04-11T03:08:55.458Z,1.40
2023-04-11T03:11:22.460Z,0.73
2023-04-11T03:13:49.110Z,0.70
2023-04-11T03:16:15.950Z,0.80
2023-04-11T03:18:42.686Z,0.65
2023-04-11T03:21:10.854Z,0.55
2023-04-11T03:23:38.907Z,0.22
2023-04-11T03:26:06.539Z,0.75
2023-04-11T03:28:33.274Z,0.30
2023-04-11T03:31:00.362Z,0.52
2023-04-11T03:33:27.146Z,0.55
2023-04-11T03:35:53.908Z,0.70
2023-04-11T03:38:21.229Z,0.45
2023-04-11T03:40:48.252Z,0.47
2023-04-11T03:43:16.817Z,1.02
2023-04-11T03:45:43.678Z,0.63
2023-04-11T03:48:10.607Z,0.70
2023-04-11T03:50:37.598Z,0.50
2023-04-11T03:53:04.534Z,0.60
2023-04-11T03:55:31.385Z,0.50
2023-04-11T03:57:58.062Z,0.60
2023-04-11T04:00:24.750Z,0.85
2023-04-11T04:02:51.697Z,0.63
2023-04-11T04:05:18.569Z,0.57
2023-04-11T04:07:48.268Z,0.55
2023-04-11T04:10:15.026Z,0.47
2023-04-11T04:12:41.765Z,0.70
2023-04-11T04:15:09.553Z,0.50
2023-04-11T04:17:36.289Z,0.40
2023-04-11T04:20:04.322Z,0.47
2023-04-11T04:22:31.173Z,0.73
2023-04-11T04:24:58.277Z,0.52
2023-04-11T04:27:25.238Z,0.50
2023-04-11T04:29:58.044Z,0.65
2023-04-11T04:32:30.754Z,0.40
2023-04-11T04:34:58.740Z,0.50
2023-04-11T04:37:27.109Z,0.77
2023-04-11T04:39:56.163Z,0.80
2023-04-11T04:42:24.818Z,0.50
2023-04-11T04:44:52.682Z,0.60
2023-04-11T04:47:22.329Z,0.60
2023-04-11T04:49:49.027Z,0.80
2023-04-11T04:52:16.143Z,0.60
2023-04-11T04:54:43.124Z,0.50
2023-04-11T04:57:09.874Z,0.52
2023-04-11T04:59:36.628Z,0.73
2023-04-11T05:02:03.474Z,0.70
2023-04-11T05:04:32.040Z,0.90
2023-04-11T05:06:59.194Z,0.63
2023-04-11T05:09:26.184Z,1.30
2023-04-11T05:11:53.093Z,1.25
2023-04-11T05:14:19.887Z,1.15
2023-04-11T05:16:46.722Z,0.90
2023-04-11T05:19:13.602Z,1.58
2023-04-11T05:21:40.427Z,1.20
2023-04-11T05:24:07.252Z,1.88
2023-04-11T05:26:33.918Z,0.80
2023-04-11T05:29:01.381Z,0.90
2023-04-11T05:31:28.911Z,1.00
2023-04-11T05:33:57.717Z,1.17
2023-04-11T05:36:25.810Z,1.10
2023-04-11T05:38:52.648Z,1.00
2023-04-11T05:41:19.396Z,0.90
2023-04-11T05:43:46.143Z,0.80
2023-04-11T05:46:13.434Z,1.02
2023-04-11T05:48:41.383Z,1.30
2023-04-11T05:51:08.406Z,1.95
2023-04-11T05:53:35.257Z,5.30
2023-04-11T05:56:02.018Z,4.60
2023-04-11T05:58:31.810Z,3.92
2023-04-11T06:00:59.899Z,2.78
2023-04-11T06:03:27.424Z,1.52
2023-04-11T06:05:54.330Z,0.93
2023-04-11T06:08:21.552Z,0.80
2023-04-11T06:10:48.371Z,2.55
2023-04-11T06:13:15.153Z,1.38
2023-04-11T06:15:41.990Z,1.25
2023-04-11T06:18:08.772Z,1.55
2023-04-11T06:20:35.519Z,1.00
2023-04-11T06:23:02.376Z,1.60
2023-04-11T06:25:29.178Z,1.48
2023-04-11T06:27:55.961Z,1.17
2023-04-11T06:30:22.791Z,1.00
2023-04-11T06:32:49.582Z,1.30
2023-04-11T06:35:16.508Z,0.90
2023-04-11T06:37:43.168Z,1.30
2023-04-11T06:40:10.419Z,1.42
2023-04-11T06:42:37.228Z,1.02
2023-04-11T06:45:05.077Z,1.10
2023-04-11T06:47:32.605Z,1.00
2023-04-11T06:49:59.386Z,1.23
2023-04-11T06:52:28.158Z,1.23
2023-04-11T06:54:55.217Z,1.42
2023-04-11T06:57:22.045Z,1.15
2023-04-11T06:59:48.896Z,1.40
2023-04-11T07:02:16.012Z,1.48
2023-04-11T07:04:42.915Z,1.52
2023-04-11T07:07:09.710Z,1.42
2023-04-11T07:09:36.592Z,1.20
2023-04-11T07:12:03.479Z,1.40
2023-04-11T07:14:30.322Z,1.20
2023-04-11T07:16:57.150Z,1.60
2023-04-11T07:19:23.914Z,1.40
2023-04-11T07:21:50.568Z,1.52
2023-04-11T07:24:18.690Z,1.65
2023-04-11T07:26:46.782Z,1.85
2023-04-11T07:29:14.946Z,1.63
2023-04-11T07:31:41.881Z,1.77
2023-04-11T07:34:08.895Z,1.25
2023-04-11T07:36:35.834Z,1.42
2023-04-11T07:39:04.423Z,1.83
2023-04-11T07:41:31.131Z,1.27
2023-04-11T07:43:58.132Z,1.63
2023-04-11T07:46:25.147Z,1.35
2023-04-11T07:48:51.901Z,1.50
2023-04-11T07:51:18.879Z,1.60
2023-04-11T07:53:45.640Z,1.55
2023-04-11T07:56:12.554Z,1.23
2023-04-11T07:58:39.310Z,1.52
2023-04-11T08:01:09.037Z,1.50
2023-04-11T08:03:36.188Z,1.42
2023-04-11T08:06:03.149Z,2.53
2023-04-11T08:08:29.912Z,3.83
2023-04-11T08:10:56.650Z,4.28
2023-04-11T08:13:23.375Z,3.30
2023-04-11T08:15:50.061Z,3.50
2023-04-11T08:18:16.945Z,1.55
2023-04-11T08:20:43.676Z,1.55
2023-04-11T08:23:11.358Z,1.65
2023-04-11T08:25:39.186Z,1.38
2023-04-11T08:28:06.354Z,1.50
2023-04-11T08:30:33.288Z,1.20
2023-04-11T08:33:00.040Z,1.48
2023-04-11T08:35:26.920Z,1.15
2023-04-11T08:37:54.254Z,1.27
2023-04-11T08:40:21.230Z,0.98
2023-04-11T08:42:48.065Z,2.08
2023-04-11T08:45:14.893Z,1.45
2023-04-11T08:47:44.739Z,1.20
2023-04-11T08:50:12.330Z,1.60
2023-04-11T08:52:40.122Z,0.98
2023-04-11T08:55:07.168Z,1.27
2023-04-11T08:57:34.974Z,1.33
2023-04-11T09:00:18.964Z,1.42
2023-04-11T09:02:59.402Z,1.23
2023-04-11T09:05:28.428Z,1.17
2023-04-11T09:07:55.604Z,1.30
2023-04-11T09:10:23.099Z,1.38
2023-04-11T09:12:49.866Z,1.60
2023-04-11T09:15:24.872Z,0.95
2023-04-11T09:17:52.451Z,1.38
2023-04-11T09:20:22.242Z,1.48
2023-04-11T09:22:50.745Z,1.80
2023-04-11T09:25:21.341Z,1.73
2023-04-11T09:27:48.811Z,2.65
2023-04-11T09:30:24.722Z,1.60
2023-04-11T09:32:56.231Z,1.90
2023-04-11T09:35:25.426Z,1.45
2023-04-11T09:37:58.695Z,1.50
2023-04-11T09:40:27.464Z,1.17
2023-04-11T09:43:00.450Z,1.00
2023-04-11T09:45:28.771Z,1.42
2023-04-11T09:47:58.378Z,1.27
2023-04-11T09:50:27.280Z,1.20
2023-04-11T09:52:59.407Z,1.38
2023-04-11T09:55:26.403Z,1.33
2023-04-11T09:57:54.747Z,1.40
2023-04-11T10:00:24.361Z,1.30
2023-04-11T10:02:53.611Z,1.30
2023-04-11T10:05:26.382Z,1.42
2023-04-11T10:08:14.462Z,1.35
2023-04-11T10:10:43.721Z,1.20
2023-04-11T10:13:35.864Z,1.33
2023-04-11T10:16:13.471Z,1.45
2023-04-11T10:18:52.437Z,1.25
2023-04-11T10:21:32.829Z,1.35
2023-04-11T10:24:11.247Z,1.30
2023-04-11T10:26:56.519Z,1.48
2023-04-11T10:29:47.498Z,1.38
2023-04-11T10:32:24.461Z,1.45
2023-04-11T10:34:54.650Z,1.42
2023-04-11T10:37:32.804Z,1.38
2023-04-11T10:40:10.009Z,1.55
2023-04-11T10:42:42.614Z,1.20
2023-04-11T10:45:29.612Z,1.30
2023-04-11T10:47:59.133Z,1.33
2023-04-11T10:50:28.886Z,1.38
2023-04-11T10:52:57.854Z,1.55
2023-04-11T10:55:29.002Z,1.10
2023-04-11T10:58:10.160Z,1.33
2023-04-11T11:00:52.627Z,1.83
2023-04-11T11:03:25.604Z,1.90
2023-04-11T11:06:04.267Z,1.75
2023-04-11T11:08:33.641Z,2.05
2023-04-11T11:11:08.730Z,1.60
2023-04-11T11:13:52.647Z,1.50
2023-04-11T11:16:21.533Z,2.42
2023-04-11T11:18:53.416Z,3.55
2023-04-11T11:21:27.668Z,3.17
2023-04-11T11:23:59.102Z,2.38
2023-04-11T11:26:42.814Z,2.38
2023-04-11T11:29:10.369Z,2.17
2023-04-11T11:31:47.780Z,1.67
2023-04-11T11:34:30.866Z,1.60
2023-04-11T11:37:01.955Z,1.50
2023-04-11T11:39:30.793Z,1.75
2023-04-11T11:41:58.209Z,1.92
2023-04-11T11:44:26.937Z,1.73
2023-04-11T11:47:06.977Z,1.70
2023-04-11T11:49:53.305Z,2.28
2023-04-11T11:52:41.659Z,1.75
2023-04-11T11:55:18.731Z,1.67
2023-04-11T11:57:46.761Z,1.70
2023-04-11T12:00:15.297Z,1.80
2023-04-11T12:02:44.233Z,1.60
2023-04-11T12:05:12.006Z,1.30
2023-04-11T12:07:39.943Z,1.73
2023-04-11T12:10:11.791Z,1.73
2023-04-11T12:12:41.093Z,1.10
2023-04-11T12:15:17.081Z,1.45
2023-04-11T12:17:48.078Z,1.33
2023-04-11T12:20:15.860Z,1.40
2023-04-11T12:22:42.716Z,1.50
2023-04-11T12:25:11.485Z,1.30
2023-04-11T12:27:39.658Z,1.85
2023-04-11T12:30:07.308Z,1.38
2023-04-11T12:32:34.372Z,1.40
2023-04-11T12:35:05.739Z,1.33
2023-04-11T12:37:33.951Z,1.67
2023-04-11T12:40:01.221Z,1.10
2023-04-11T12:42:28.138Z,1.30
2023-04-11T12:44:54.918Z,1.75
2023-04-11T12:47:21.748Z,1.70
2023-04-11T12:49:48.456Z,1.67
2023-04-11T12:52:15.636Z,1.10
2023-04-11T12:54:42.473Z,1.23
2023-04-11T12:57:09.243Z,1.30
2023-04-11T12:59:36.116Z,1.55
2023-04-11T13:02:03.119Z,1.75
2023-04-11T13:04:30.450Z,1.38
2023-04-11T13:07:01.206Z,1.40
2023-04-11T13:09:29.680Z,1.42
2023-04-11T13:11:58.520Z,0.93
2023-04-11T13:14:25.963Z,1.40
2023-04-11T13:16:52.715Z,1.00
2023-04-11T13:19:20.575Z,0.90
2023-04-11T13:21:47.689Z,1.48
2023-04-11T13:24:14.891Z,1.10
2023-04-11T13:26:41.779Z,0.75
2023-04-11T13:29:08.655Z,1.23
2023-04-11T13:31:35.488Z,1.13
2023-04-11T13:34:02.442Z,1.35
2023-04-11T13:36:29.652Z,1.45
2023-04-11T13:38:57.577Z,1.38
2023-04-11T13:41:25.408Z,1.38
2023-04-11T13:43:52.693Z,1.05
2023-04-11T13:46:19.725Z,1.17
2023-04-11T13:48:46.551Z,1.00
2023-04-11T13:51:13.656Z,1.38
2023-04-11T13:53:40.494Z,1.33
2023-04-11T13:56:07.984Z,1.27
2023-04-11T13:58:35.201Z,0.85
2023-04-11T14:01:02.037Z,1.10
2023-04-11T14:03:33.721Z,1.52
2023-04-11T14:06:01.588Z,1.40
2023-04-11T14:08:29.274Z,1.75
2023-04-11T14:10:56.428Z,1.30
2023-04-11T14:13:23.361Z,1.33
2023-04-11T14:16:04.887Z,1.38
2023-04-11T14:18:34.338Z,1.10
2023-04-11T14:21:01.764Z,1.50
2023-04-11T14:23:29.462Z,1.15
2023-04-11T14:25:56.808Z,1.20
2023-04-11T14:28:26.548Z,11.00
2023-04-11T14:30:54.087Z,3.30
2023-04-11T14:33:21.055Z,4.13
2023-04-11T14:35:47.717Z,3.80
2023-04-11T14:38:15.998Z,8.93
2023-04-11T14:40:42.934Z,4.63
2023-04-11T14:43:09.730Z,3.13
2023-04-11T14:45:36.580Z,1.50
2023-04-11T14:48:03.607Z,3.08
2023-04-11T14:50:30.606Z,3.78
2023-04-11T14:52:57.289Z,2.58
2023-04-11T14:55:24.237Z,3.72
2023-04-11T14:57:55.777Z,7.88
2023-04-11T15:00:24.885Z,5.13
2023-04-11T15:02:56.362Z,2.03
2023-04-11T15:05:23.998Z,1.50
2023-04-11T15:07:52.631Z,2.00
2023-04-11T15:10:24.704Z,2.85
2023-04-11T15:12:51.434Z,2.10
2023-04-11T15:15:18.275Z,2.33
2023-04-11T15:17:50.182Z,2.53
2023-04-11T15:20:19.913Z,1.05
2023-04-11T15:22:47.966Z,1.55
2023-04-11T15:25:17.023Z,2.10
2023-04-11T15:27:44.852Z,2.60
2023-04-11T15:30:12.465Z,1.35
2023-04-11T15:32:52.086Z,0.93
2023-04-11T15:35:19.038Z,1.10
2023-04-11T15:37:45.921Z,1.15
2023-04-11T15:40:15.204Z,1.02
2023-04-11T15:42:42.948Z,0.93
2023-04-11T15:45:10.140Z,1.23
2023-04-11T15:47:36.921Z,1.20
2023-04-11T15:50:04.652Z,0.80
2023-04-11T15:52:31.399Z,1.23
2023-04-11T15:54:58.194Z,1.40
2023-04-11T15:57:26.529Z,1.50
2023-04-11T15:59:53.346Z,1.75
2023-04-11T16:02:20.106Z,1.98
2023-04-11T16:04:50.018Z,1.50
2023-04-11T16:07:19.251Z,1.00
2023-04-11T16:09:46.499Z,1.27
2023-04-11T16:12:13.339Z,1.40
2023-04-11T16:14:40.473Z,1.40
2023-04-11T16:17:07.227Z,0.90
2023-04-11T16:19:33.878Z,1.13
2023-04-11T16:22:00.697Z,1.20
2023-04-11T16:24:29.253Z,1.27
2023-04-11T16:26:57.259Z,0.90
2023-04-11T16:29:25.274Z,1.42
2023-04-11T16:31:52.230Z,1.10
2023-04-11T16:34:19.221Z,1.02
2023-04-11T16:36:45.953Z,1.30
2023-04-11T16:39:12.909Z,1.30
2023-04-11T16:41:39.618Z,1.27
2023-04-11T16:44:11.337Z,1.30
2023-04-11T16:46:42.149Z,1.52
2023-04-11T16:49:09.989Z,1.10
2023-04-11T16:51:37.694Z,1.00
2023-04-11T16:54:09.671Z,1.20
2023-04-11T16:56:37.330Z,1.52
2023-04-11T16:59:04.901Z,0.98
2023-04-11T17:01:32.115Z,0.98
2023-04-11T17:03:59.354Z,1.20
2023-04-11T17:06:27.177Z,0.82
2023-04-11T17:08:53.977Z,1.00
2023-04-11T17:11:20.802Z,0.65
2023-04-11T17:13:49.466Z,1.20
2023-04-11T17:16:19.563Z,1.00
2023-04-11T17:18:46.394Z,1.17
2023-04-11T17:21:13.049Z,1.00
2023-04-11T17:23:56.708Z,1.00
2023-04-11T17:26:23.503Z,1.10
2023-04-11T17:28:50.432Z,1.45
2023-04-11T17:31:18.690Z,1.33
2023-04-11T17:33:45.803Z,1.30
2023-04-11T17:36:13.133Z,1.23
2023-04-11T17:38:40.889Z,1.05
2023-04-11T17:41:14.486Z,1.38
2023-04-11T17:43:42.230Z,0.98
2023-04-11T17:46:09.221Z,0.90
2023-04-11T17:48:36.744Z,0.85
2023-04-11T17:51:04.559Z,1.10
2023-04-11T17:53:31.648Z,1.10
2023-04-11T17:55:58.391Z,1.17
2023-04-11T17:58:25.469Z,1.75
2023-04-11T18:00:56.052Z,1.05
2023-04-11T18:03:25.750Z,1.35
2023-04-11T18:05:54.044Z,1.30
2023-04-11T18:08:26.553Z,1.63
2023-04-11T18:11:00.118Z,1.10
2023-04-11T18:13:27.513Z,1.38
2023-04-11T18:15:54.578Z,1.40
2023-04-11T18:18:21.438Z,1.60
2023-04-11T18:20:48.393Z,1.05
2023-04-11T18:23:15.120Z,1.55
2023-04-11T18:25:41.847Z,1.27
2023-04-11T18:28:08.608Z,1.50
2023-04-11T18:30:35.262Z,1.65
2023-04-11T18:33:02.125Z,1.63
2023-04-11T18:35:28.833Z,1.25
2023-04-11T18:37:55.900Z,1.63
2023-04-11T18:40:22.834Z,1.42
2023-04-11T18:42:53.002Z,1.90
2023-04-11T18:45:21.882Z,1.58
2023-04-11T18:47:49.269Z,2.17
2023-04-11T18:50:17.237Z,1.58
2023-04-11T18:52:45.606Z,1.33
2023-04-11T18:55:13.060Z,1.40
2023-04-11T18:57:40.272Z,1.33
2023-04-11T19:00:17.999Z,1.50
2023-04-11T19:02:47.067Z,2.80
2023-04-11T19:05:14.656Z,1.80
2023-04-11T19:07:42.542Z,1.80
2023-04-11T19:10:10.856Z,1.77
2023-04-11T19:12:38.238Z,2.08
2023-04-11T19:15:09.310Z,2.63
2023-04-11T19:17:38.846Z,2.40
2023-04-11T19:20:13.123Z,2.60
2023-04-11T19:22:43.331Z,3.20
2023-04-11T19:25:11.207Z,3.30
2023-04-11T19:27:42.574Z,3.22
2023-04-11T19:30:10.876Z,3.03
2023-04-11T19:32:38.714Z,3.40
2023-04-11T19:35:08.750Z,3.40
2023-04-11T19:37:36.534Z,4.10
2023-04-11T19:40:07.086Z,3.38
2023-04-11T19:42:36.853Z,3.40
2023-04-11T19:45:05.006Z,3.15
2023-04-11T19:47:32.631Z,3.38
2023-04-11T19:50:00.845Z,3.72
2023-04-11T19:52:28.517Z,3.95
2023-04-11T19:54:56.613Z,4.28
2023-04-11T19:57:26.388Z,3.85
2023-04-11T19:59:53.131Z,3.55
2023-04-11T20:02:20.034Z,3.03
2023-04-11T20:04:46.868Z,3.38
2023-04-11T20:07:13.620Z,3.17
2023-04-11T20:09:40.338Z,2.85
2023-04-11T20:12:07.488Z,3.90
2023-04-11T20:14:34.540Z,3.63
2023-04-11T20:17:01.439Z,3.30
2023-04-11T20:19:29.811Z,3.25
2023-04-11T20:21:56.666Z,3.13
2023-04-11T20:24:23.920Z,2.40
2023-04-11T20:26:51.288Z,2.85
2023-04-11T20:29:18.432Z,2.60
2023-04-11T20:31:45.302Z,3.33
2023-04-11T20:34:12.187Z,3.67
2023-04-11T20:36:39.073Z,4.45
2023-04-11T20:39:06.279Z,4.38
2023-04-11T20:41:33.174Z,4.20
2023-04-11T20:43:59.941Z,3.67
2023-04-11T20:46:29.997Z,3.30
2023-04-11T20:48:56.949Z,3.28
2023-04-11T20:51:25.040Z,2.72
2023-04-11T20:53:51.905Z,2.75
2023-04-11T20:56:18.658Z,3.95
2023-04-11T20:58:46.932Z,3.83
2023-04-11T21:01:13.759Z,2.88
2023-04-11T21:03:42.479Z,3.13
2023-04-11T21:06:10.864Z,2.10
2023-04-11T21:08:37.952Z,2.60
2023-04-11T21:11:05.629Z,2.28
2023-04-11T21:13:32.448Z,2.80
2023-04-11T21:15:59.221Z,2.72
2023-04-11T21:18:26.021Z,2.00
2023-04-11T21:20:52.742Z,2.05
2023-04-11T21:23:19.519Z,1.77
2023-04-11T21:25:46.561Z,1.67
2023-04-11T21:28:13.227Z,1.95
2023-04-11T21:30:39.900Z,1.70
2023-04-11T21:33:06.708Z,2.03
2023-04-11T21:35:33.929Z,1.75
2023-04-11T21:38:00.867Z,2.22
2023-04-11T21:40:27.642Z,2.20
2023-04-11T21:42:55.538Z,1.42
2023-04-11T21:45:23.171Z,1.75
2023-04-11T21:47:51.409Z,1.95
2023-04-11T21:50:19.576Z,1.85
2023-04-11T21:52:46.831Z,1.70
2023-04-11T21:55:14.893Z,1.70
2023-04-11T21:57:41.753Z,1.90
2023-04-11T22:00:11.066Z,1.70
2023-04-11T22:02:38.614Z,1.90
2023-04-11T22:05:08.739Z,1.90
2023-04-11T22:07:46.588Z,1.40
2023-04-11T22:10:14.237Z,1.67
2023-04-11T22:12:41.887Z,1.98
2023-04-11T22:15:11.044Z,1.80
2023-04-11T22:17:38.484Z,2.08
2023-04-11T22:20:06.891Z,1.88
2023-04-11T22:22:35.173Z,1.92
2023-04-11T22:25:01.855Z,1.90
2023-04-11T22:27:29.862Z,1.88
2023-04-11T22:29:56.552Z,1.83
2023-04-11T22:32:24.003Z,2.00
2023-04-11T22:34:51.164Z,1.70
2023-04-11T22:37:17.914Z,1.90
2023-04-11T22:39:44.604Z,2.03
2023-04-11T22:42:11.703Z,2.35
2023-04-11T22:44:38.714Z,1.92
2023-04-11T22:47:08.002Z,1.85
2023-04-11T22:49:40.508Z,1.92
2023-04-11T22:52:15.148Z,1.60
2023-04-11T22:54:43.113Z,1.70
2023-04-11T22:57:10.332Z,1.85
2023-04-11T22:59:37.264Z,1.33
2023-04-11T23:02:04.150Z,1.30
2023-04-11T23:04:32.452Z,1.60
2023-04-11T23:06:59.613Z,1.20
2023-04-11T23:09:27.058Z,1.83
2023-04-11T23:11:53.705Z,1.63
2023-04-11T23:14:21.470Z,1.65
2023-04-11T23:16:48.620Z,1.30
2023-04-11T23:19:15.645Z,1.60
2023-04-11T23:21:43.029Z,1.70
2023-04-11T23:24:09.998Z,1.20
2023-04-11T23:26:37.105Z,1.50
2023-04-11T23:29:04.077Z,1.75
2023-04-11T23:31:31.708Z,1.15
2023-04-11T23:33:58.759Z,1.30
2023-04-11T23:36:27.500Z,1.42
2023-04-11T23:38:54.523Z,1.90
2023-04-11T23:41:21.348Z,1.08
2023-04-11T23:43:48.073Z,0.95
2023-04-11T23:46:17.054Z,1.45
2023-04-11T23:48:44.384Z,1.75
2023-04-11T23:51:11.359Z,1.45
2023-04-11T23:53:38.080Z,1.55
2023-04-11T23:56:05.110Z,1.20
2023-04-11T23:58:31.868Z,1.50
